createdAt,value
2022-07-29T00:27:59.050Z,6.40
2022-07-29T00:40:43.989Z,5.78
2022-07-29T00:49:06.358Z,6.10
2022-07-29T00:53:14.818Z,6.50
2022-07-29T01:10:18.333Z,5.68
2022-07-29T01:14:25.071Z,6.65
2022-07-29T01:18:49.671Z,6.07
2022-07-29T01:23:09.121Z,5.93
2022-07-29T01:27:37.719Z,6.63
2022-07-29T01:36:14.373Z,5.93
2022-07-29T01:45:02.477Z,6.00
2022-07-29T02:19:55.297Z,6.32
2022-07-29T02:45:47.461Z,6.95
2022-07-29T02:55:02.734Z,7.63
2022-07-29T03:03:41.752Z,7.45
2022-07-29T03:25:11.430Z,6.90
2022-07-29T05:04:44.081Z,8.93
2022-07-29T05:08:47.053Z,9.88
2022-07-29T05:12:50.211Z,9.43
2022-07-29T05:16:54.240Z,11.13
2022-07-29T05:20:57.414Z,9.18
2022-07-29T05:25:04.295Z,10.85
2022-07-29T05:29:44.343Z,9.50
2022-07-29T05:33:37.261Z,11.68
2022-07-29T05:37:42.014Z,10.75
2022-07-29T05:41:50.136Z,11.40
2022-07-29T05:45:54.889Z,11.70
2022-07-29T05:49:58.202Z,10.40
2022-07-29T05:54:01.303Z,10.00
2022-07-29T05:58:04.240Z,10.65
2022-07-29T06:02:07.312Z,10.18
2022-07-29T06:06:10.656Z,9.68
2022-07-29T06:10:13.412Z,9.60
2022-07-29T06:14:16.634Z,9.38
2022-07-29T06:18:21.901Z,8.75
2022-07-29T06:22:25.186Z,9.70
2022-07-29T06:26:31.412Z,8.32
2022-07-29T06:30:35.367Z,8.13
2022-07-29T06:34:40.501Z,7.63
2022-07-29T06:38:50.510Z,7.88
2022-07-29T06:42:54.933Z,8.00
2022-07-29T06:46:57.979Z,8.38
2022-07-29T06:51:01.684Z,8.93
2022-07-29T06:55:08.105Z,9.60
2022-07-29T06:59:12.927Z,8.77
2022-07-29T07:03:17.417Z,9.48
2022-07-29T07:07:22.488Z,8.73
2022-07-29T07:11:25.456Z,8.65
2022-07-29T07:15:39.828Z,8.82
2022-07-29T07:19:51.071Z,7.07
2022-07-29T07:23:57.221Z,6.75
2022-07-29T07:36:37.022Z,6.20
2022-07-29T07:40:42.644Z,6.10
2022-07-29T07:45:12.192Z,5.97
2022-07-29T07:49:12.285Z,6.38
2022-07-29T07:53:22.971Z,6.45
2022-07-29T10:01:32.292Z,3.75
2022-07-29T10:23:55.546Z,3.92
2022-07-29T14:05:42.297Z,2.42
2022-07-29T15:20:09.070Z,2.20
2022-07-29T15:28:34.162Z,2.50
2022-07-29T16:19:48.950Z,2.42
2022-07-29T16:23:52.233Z,2.20
2022-07-29T16:27:59.599Z,2.85
2022-07-29T16:32:02.901Z,3.10
2022-07-29T16:36:08.002Z,3.70
2022-07-29T16:40:18.268Z,2.80
2022-07-29T17:14:31.432Z,1.98
2022-07-29T17:18:37.373Z,2.60
2022-07-29T17:22:42.228Z,2.00
2022-07-29T17:35:47.316Z,2.60
2022-07-29T17:39:50.888Z,2.67
2022-07-29T17:43:54.395Z,2.55
2022-07-29T17:47:57.823Z,2.70
2022-07-29T17:52:01.258Z,2.78
2022-07-29T17:56:05.462Z,3.83
2022-07-29T18:00:10.745Z,4.07
2022-07-29T18:04:15.943Z,2.87
2022-07-29T18:08:20.913Z,2.60
2022-07-29T18:12:34.508Z,2.65
2022-07-29T18:21:15.177Z,2.42
2022-07-29T18:34:00.033Z,2.58
2022-07-29T18:38:04.242Z,2.75
2022-07-29T18:42:15.018Z,2.90
2022-07-29T18:46:18.018Z,2.65
2022-07-29T19:49:41.675Z,2.25
2022-07-29T19:58:08.978Z,2.25
2022-07-29T20:02:13.567Z,2.33
2022-07-29T20:06:19.301Z,2.08
2022-07-29T22:58:24.395Z,2.38
2022-07-29T23:02:35.232Z,2.38
2022-07-29T23:33:31.486Z,2.47
2022-07-29T23:37:34.575Z,2.20
2022-07-29T23:41:37.790Z,2.20
2022-07-29T23:45:44.532Z,2.10
2022-07-29T23:49:50.261Z,2.20
2022-07-29T23:53:54.348Z,2.33
2022-07-29T23:57:57.149Z,2.17
